createdAt,value
2023-05-20T00:00:09.937Z,0.00
2023-05-20T00:01:09.914Z,0.00
2023-05-20T00:02:09.956Z,0.00
2023-05-20T00:03:10.047Z,0.00
2023-05-20T00:04:10.126Z,0.00
2023-05-20T00:05:09.916Z,0.00
2023-05-20T00:06:09.922Z,0.00
2023-05-20T00:07:09.848Z,0.00
2023-05-20T00:08:09.893Z,0.00
2023-05-20T00:09:09.868Z,0.00
2023-05-20T00:10:09.829Z,0.00
2023-05-20T00:11:09.814Z,0.00
2023-05-20T00:12:09.792Z,0.00
2023-05-20T00:13:09.897Z,0.00
2023-05-20T00:14:09.810Z,0.00
2023-05-20T00:15:09.771Z,0.00
2023-05-20T00:16:09.770Z,0.00
2023-05-20T00:17:09.743Z,0.00
2023-05-20T00:18:09.944Z,0.00
2023-05-20T00:19:09.793Z,0.00
2023-05-20T00:20:09.737Z,0.00
2023-05-20T00:21:09.702Z,0.00
2023-05-20T00:22:09.730Z,0.00
2023-05-20T00:23:09.875Z,0.00
2023-05-20T00:24:09.689Z,0.00
2023-05-20T00:25:09.715Z,0.00
2023-05-20T00:26:09.642Z,0.00
2023-05-20T00:27:09.628Z,0.00
2023-05-20T00:28:09.878Z,0.00
2023-05-20T00:29:09.617Z,0.00
2023-05-20T00:30:09.609Z,0.00
2023-05-20T00:31:09.603Z,0.00
2023-05-20T00:32:09.705Z,0.00
2023-05-20T00:33:09.915Z,0.00
2023-05-20T00:34:09.542Z,0.00
2023-05-20T00:35:09.536Z,0.00
2023-05-20T00:36:09.516Z,0.00
2023-05-20T00:37:09.540Z,0.00
2023-05-20T00:38:09.504Z,0.00
2023-05-20T00:39:09.497Z,0.00
2023-05-20T00:40:09.476Z,0.00
2023-05-20T00:41:09.758Z,0.00
2023-05-20T00:42:09.463Z,0.00
2023-05-20T00:43:09.445Z,0.00
2023-05-20T00:44:09.501Z,0.00
2023-05-20T00:45:09.433Z,0.00
2023-05-20T00:46:09.495Z,0.00
2023-05-20T00:47:09.422Z,0.00
2023-05-20T00:48:09.431Z,0.00
2023-05-20T00:49:09.389Z,0.00
2023-05-20T00:50:09.375Z,0.00
2023-05-20T00:51:09.383Z,0.00
2023-05-20T00:52:09.385Z,0.00
2023-05-20T00:53:09.342Z,0.00
2023-05-20T00:54:09.325Z,0.00
2023-05-20T00:55:09.334Z,0.00
2023-05-20T00:56:09.310Z,0.00
2023-05-20T00:57:09.327Z,0.00
2023-05-20T00:58:09.307Z,0.00
2023-05-20T00:59:09.305Z,0.00
2023-05-20T01:00:09.311Z,0.00
2023-05-20T01:01:09.273Z,0.00
2023-05-20T01:02:09.316Z,0.00
2023-05-20T01:03:09.328Z,0.00
2023-05-20T01:04:09.210Z,0.00
2023-05-20T01:05:09.222Z,0.00
2023-05-20T01:06:09.188Z,0.00
2023-05-20T01:07:09.191Z,0.00
2023-05-20T01:08:09.216Z,0.00
2023-05-20T01:09:09.155Z,0.00
2023-05-20T01:10:09.156Z,0.00
2023-05-20T01:11:09.134Z,0.00
2023-05-20T01:12:09.158Z,0.00
2023-05-20T01:13:09.121Z,0.00
2023-05-20T01:14:09.108Z,0.00
2023-05-20T01:15:09.130Z,0.00
2023-05-20T01:16:09.092Z,0.00
2023-05-20T01:17:09.071Z,0.00
2023-05-20T01:18:09.120Z,0.00
2023-05-20T01:19:09.086Z,0.00
2023-05-20T01:20:09.056Z,0.00
2023-05-20T01:21:09.033Z,0.00
2023-05-20T01:22:09.980Z,0.00
2023-05-20T01:23:09.027Z,0.00
2023-05-20T01:24:09.010Z,0.00
2023-05-20T01:25:08.978Z,0.00
2023-05-20T01:26:08.981Z,0.00
2023-05-20T01:27:08.973Z,0.00
2023-05-20T01:28:08.953Z,0.00
2023-05-20T01:29:08.955Z,0.00
2023-05-20T01:30:08.955Z,0.00
2023-05-20T01:31:08.928Z,0.00
2023-05-20T01:32:08.911Z,0.00
2023-05-20T01:33:08.958Z,0.00
2023-05-20T01:34:08.894Z,0.00
2023-05-20T01:35:08.863Z,0.00
2023-05-20T01:36:08.859Z,0.00
2023-05-20T01:37:08.856Z,0.00
2023-05-20T01:38:08.867Z,0.00
2023-05-20T01:39:08.823Z,0.00
2023-05-20T01:40:08.820Z,0.00
2023-05-20T01:41:08.803Z,0.00
2023-05-20T01:42:08.799Z,0.00
2023-05-20T01:43:08.796Z,0.00
2023-05-20T01:44:08.781Z,0.00
2023-05-20T01:45:08.772Z,0.00
2023-05-20T01:46:08.810Z,0.00
2023-05-20T01:47:08.749Z,0.00
2023-05-20T01:48:08.794Z,0.00
2023-05-20T01:49:08.746Z,0.00
2023-05-20T01:50:08.714Z,0.00
2023-05-20T01:51:08.692Z,0.00
2023-05-20T01:52:08.709Z,0.00
2023-05-20T01:53:08.686Z,0.00
2023-05-20T01:54:08.670Z,0.00
2023-05-20T01:55:08.661Z,0.00
2023-05-20T01:56:08.646Z,0.00
2023-05-20T01:57:08.664Z,0.00
2023-05-20T01:58:08.632Z,0.00
2023-05-20T01:59:08.620Z,0.00
2023-05-20T02:00:08.606Z,0.00
2023-05-20T02:01:08.607Z,0.00
2023-05-20T02:02:08.597Z,0.00
2023-05-20T02:03:08.614Z,0.00
2023-05-20T02:04:08.589Z,0.00
2023-05-20T02:05:08.540Z,0.00
2023-05-20T02:06:08.626Z,0.00
2023-05-20T02:07:08.516Z,0.00
2023-05-20T02:08:08.512Z,0.00
2023-05-20T02:09:08.485Z,0.00
2023-05-20T02:10:08.521Z,0.00
2023-05-20T02:11:08.521Z,0.00
2023-05-20T02:12:08.478Z,0.00
2023-05-20T02:13:08.508Z,0.00
2023-05-20T02:14:08.445Z,0.00
2023-05-20T02:15:08.456Z,0.00
2023-05-20T02:16:08.443Z,0.00
2023-05-20T02:17:08.413Z,0.00
2023-05-20T02:18:08.524Z,0.00
2023-05-20T02:19:08.463Z,0.00
2023-05-20T02:20:08.382Z,0.00
2023-05-20T02:21:08.357Z,0.00
2023-05-20T02:22:08.395Z,0.00
2023-05-20T02:23:08.344Z,0.00
2023-05-20T02:24:08.362Z,0.00
2023-05-20T02:25:08.333Z,0.00
2023-05-20T02:26:08.315Z,0.00
2023-05-20T02:27:08.304Z,0.00
2023-05-20T02:28:08.305Z,0.00
2023-05-20T02:29:08.306Z,0.00
2023-05-20T02:30:08.287Z,0.00
2023-05-20T02:31:08.262Z,0.00
2023-05-20T02:32:08.285Z,0.00
2023-05-20T02:33:08.284Z,0.00
2023-05-20T02:34:08.340Z,0.00
2023-05-20T02:35:08.229Z,0.00
2023-05-20T02:36:08.225Z,0.00
2023-05-20T02:37:08.188Z,0.00
2023-05-20T02:38:08.212Z,0.00
2023-05-20T02:39:08.189Z,0.00
2023-05-20T02:40:08.163Z,0.00
2023-05-20T02:41:08.148Z,0.00
2023-05-20T02:42:08.162Z,0.00
2023-05-20T02:43:08.152Z,0.00
2023-05-20T02:44:08.120Z,0.00
2023-05-20T02:45:08.092Z,0.00
2023-05-20T02:46:08.120Z,0.00
2023-05-20T02:47:08.117Z,0.00
2023-05-20T02:48:08.128Z,0.00
2023-05-20T02:49:08.105Z,0.00
2023-05-20T02:50:08.075Z,0.00
2023-05-20T02:51:08.032Z,0.00
2023-05-20T02:52:08.027Z,0.00
2023-05-20T02:53:08.025Z,0.00
2023-05-20T02:54:07.998Z,0.00
2023-05-20T02:55:07.999Z,0.00
2023-05-20T02:56:07.990Z,0.00
2023-05-20T02:57:07.978Z,0.00
2023-05-20T02:58:07.971Z,0.00
2023-05-20T02:59:07.980Z,0.00
2023-05-20T03:00:07.967Z,0.00
2023-05-20T03:01:07.995Z,0.00
2023-05-20T03:02:07.950Z,0.00
2023-05-20T03:03:07.950Z,0.00
2023-05-20T03:04:07.941Z,0.00
2023-05-20T03:05:08.034Z,0.00
2023-05-20T03:06:07.864Z,0.00
2023-05-20T03:07:07.869Z,4.00
2023-05-20T03:08:07.890Z,4.00
2023-05-20T03:09:07.837Z,0.00
2023-05-20T03:10:07.854Z,0.00
2023-05-20T03:11:07.942Z,4.00
2023-05-20T03:12:07.821Z,4.00
2023-05-20T03:13:07.858Z,4.00
2023-05-20T03:14:07.823Z,4.00
2023-05-20T03:15:07.771Z,8.00
2023-05-20T03:16:07.840Z,4.00
2023-05-20T03:17:07.785Z,8.00
2023-05-20T03:18:07.789Z,8.00
2023-05-20T03:19:07.859Z,8.00
2023-05-20T03:20:07.725Z,12.00
2023-05-20T03:21:07.716Z,16.00
2023-05-20T03:22:07.705Z,12.00
2023-05-20T03:23:07.682Z,16.00
2023-05-20T03:24:07.679Z,20.00
2023-05-20T03:25:07.659Z,20.00
2023-05-20T03:26:07.661Z,20.00
2023-05-20T03:27:07.665Z,24.00
2023-05-20T03:28:07.634Z,28.00
2023-05-20T03:29:07.609Z,32.00
2023-05-20T03:30:07.623Z,36.00
2023-05-20T03:31:07.744Z,40.00
2023-05-20T03:32:09.476Z,44.00
2023-05-20T03:33:07.608Z,48.00
2023-05-20T03:34:07.611Z,48.00
2023-05-20T03:35:07.548Z,56.00
2023-05-20T03:36:07.570Z,56.00
2023-05-20T03:37:07.531Z,60.00
2023-05-20T03:38:07.540Z,68.00
2023-05-20T03:41:13.051Z,88.00
2023-05-20T03:43:13.412Z,100.00
2023-05-20T03:44:13.425Z,104.00
2023-05-20T03:45:14.132Z,116.00
2023-05-20T03:46:13.422Z,128.00
2023-05-20T03:47:24.532Z,136.00
2023-05-20T03:51:02.364Z,172.00
2023-05-20T03:52:00.475Z,176.00
2023-05-20T03:53:02.212Z,176.00
2023-05-20T03:54:00.623Z,180.00
2023-05-20T03:55:00.522Z,188.00
2023-05-20T03:56:00.403Z,196.00
2023-05-20T03:57:00.406Z,208.00
2023-05-20T04:00:34.662Z,196.00
2023-05-20T04:01:28.851Z,204.00
2023-05-20T04:02:42.607Z,212.00
2023-05-20T04:03:28.515Z,216.00
2023-05-20T04:04:37.801Z,228.00
2023-05-20T04:05:27.686Z,236.00
2023-05-20T04:06:27.640Z,248.00
2023-05-20T04:07:28.282Z,252.00
2023-05-20T04:08:27.653Z,280.00
2023-05-20T04:09:27.623Z,312.00
2023-05-20T04:10:28.370Z,336.00
2023-05-20T04:12:50.388Z,284.00
2023-05-20T04:13:50.744Z,292.00
2023-05-20T04:14:50.684Z,312.00
2023-05-20T04:16:00.739Z,332.00
2023-05-20T04:16:50.654Z,344.00
2023-05-20T04:17:50.696Z,348.00
2023-05-20T04:18:50.780Z,348.00
2023-05-20T04:21:29.482Z,300.00
2023-05-20T04:22:29.941Z,288.00
2023-05-20T04:23:29.948Z,320.00
2023-05-20T04:24:29.941Z,340.00
2023-05-20T04:25:30.906Z,364.00
2023-05-20T04:26:29.977Z,372.00
2023-05-20T04:27:29.934Z,332.00
2023-05-20T04:28:29.889Z,308.00
2023-05-20T04:29:29.871Z,292.00
2023-05-20T04:30:30.865Z,316.00
2023-05-20T04:31:29.938Z,332.00
2023-05-20T04:32:55.211Z,340.00
2023-05-20T04:33:30.572Z,344.00
2023-05-20T04:35:12.109Z,364.00
2023-05-20T04:36:26.826Z,396.00
2023-05-20T04:36:32.211Z,452.00
2023-05-20T04:38:12.535Z,524.00
2023-05-20T04:39:46.340Z,656.00
2023-05-20T04:40:46.468Z,672.00
2023-05-20T04:41:46.454Z,700.00
2023-05-20T04:42:46.475Z,740.00
2023-05-20T04:43:46.432Z,764.00
2023-05-20T04:44:46.430Z,784.00
2023-05-20T04:45:46.438Z,772.00
2023-05-20T04:46:46.419Z,780.00
2023-05-20T04:47:46.435Z,764.00
2023-05-20T04:48:46.377Z,776.00
2023-05-20T04:49:46.408Z,852.00
2023-05-20T04:50:54.898Z,880.00
2023-05-20T04:51:46.387Z,888.00
2023-05-20T04:52:46.366Z,856.00
2023-05-20T04:53:46.396Z,868.00
2023-05-20T04:54:46.562Z,928.00
2023-05-20T04:55:46.313Z,1020.00
2023-05-20T04:56:46.301Z,1040.00
2023-05-20T04:57:46.358Z,996.00
2023-05-20T04:58:46.272Z,916.00
2023-05-20T04:59:49.623Z,892.00
2023-05-20T05:00:46.287Z,900.00
2023-05-20T05:02:04.356Z,932.00
2023-05-20T05:02:46.254Z,960.00
2023-05-20T05:03:46.210Z,888.00
2023-05-20T05:04:46.281Z,792.00
2023-05-20T05:05:46.209Z,752.00
2023-05-20T05:07:14.652Z,784.00
2023-05-20T05:07:46.166Z,856.00
2023-05-20T05:08:48.521Z,964.00
2023-05-20T05:09:54.390Z,972.00
2023-05-20T05:10:46.147Z,940.00
2023-05-20T05:11:46.127Z,904.00
2023-05-20T05:12:46.113Z,872.00
2023-05-20T05:13:46.134Z,872.00
2023-05-20T05:14:46.097Z,936.00
2023-05-20T05:15:46.106Z,972.00
2023-05-20T05:16:46.208Z,932.00
2023-05-20T05:17:46.104Z,888.00
2023-05-20T05:18:46.085Z,908.00
2023-05-20T05:19:48.746Z,976.00
2023-05-20T05:20:46.063Z,1036.00
2023-05-20T05:21:46.023Z,1132.00
2023-05-20T05:22:46.050Z,1212.00
2023-05-20T05:23:46.138Z,1228.00
2023-05-20T05:24:46.065Z,1320.00
2023-05-20T05:25:48.114Z,1392.00
2023-05-20T05:26:45.954Z,1468.00
2023-05-20T05:27:45.940Z,1532.00
2023-05-20T05:28:45.944Z,1424.00
2023-05-20T05:29:45.976Z,1368.00
2023-05-20T05:30:45.916Z,1380.00
2023-05-20T05:31:45.977Z,1320.00
2023-05-20T05:32:46.018Z,1288.00
2023-05-20T05:33:45.904Z,1356.00
2023-05-20T05:34:46.233Z,1436.00
2023-05-20T05:35:45.859Z,1620.00
2023-05-20T05:36:46.864Z,1564.00
2023-05-20T05:37:45.839Z,1404.00
2023-05-20T05:38:45.843Z,1416.00
2023-05-20T05:39:45.909Z,1464.00
2023-05-20T05:40:45.807Z,1600.00
2023-05-20T05:41:45.806Z,1620.00
2023-05-20T05:42:45.790Z,1616.00
2023-05-20T05:43:45.781Z,1588.00
2023-05-20T05:44:45.980Z,1548.00
2023-05-20T05:45:45.731Z,1504.00
2023-05-20T05:46:45.787Z,1552.00
2023-05-20T05:47:45.802Z,1596.00
2023-05-20T05:48:45.747Z,1592.00
2023-05-20T05:49:46.079Z,1580.00
2023-05-20T05:50:45.684Z,1436.00
2023-05-20T05:51:45.678Z,1448.00
2023-05-20T05:52:45.737Z,1460.00
2023-05-20T05:53:45.659Z,1524.00
2023-05-20T05:54:46.079Z,1404.00
2023-05-20T05:55:45.627Z,1356.00
2023-05-20T05:56:45.625Z,1300.00
2023-05-20T05:57:45.667Z,1392.00
2023-05-20T05:58:45.594Z,1400.00
2023-05-20T05:59:46.182Z,1296.00
2023-05-20T06:00:45.589Z,1380.00
2023-05-20T06:01:45.588Z,1324.00
2023-05-20T06:02:45.792Z,1292.00
2023-05-20T06:03:45.599Z,1104.00
2023-05-20T06:04:45.531Z,1288.00
2023-05-20T06:05:45.520Z,1288.00
2023-05-20T06:06:45.524Z,1228.00
2023-05-20T06:07:45.492Z,1292.00
2023-05-20T06:08:45.490Z,1276.00
2023-05-20T06:09:45.482Z,1232.00
2023-05-20T06:10:45.468Z,1228.00
2023-05-20T06:11:45.477Z,1252.00
2023-05-20T06:12:45.447Z,1392.00
2023-05-20T06:13:45.419Z,1496.00
2023-05-20T06:14:45.436Z,1636.00
2023-05-20T06:15:45.419Z,1560.00
2023-05-20T06:16:45.475Z,1564.00
2023-05-20T06:17:45.461Z,1664.00
2023-05-20T06:18:45.457Z,1632.00
2023-05-20T06:19:45.357Z,1692.00
2023-05-20T06:20:45.393Z,1816.00
2023-05-20T06:21:45.334Z,1836.00
2023-05-20T06:22:45.332Z,1908.00
2023-05-20T06:23:45.918Z,2016.00
2023-05-20T06:24:45.304Z,2040.00
2023-05-20T06:25:45.307Z,2156.00
2023-05-20T06:26:45.355Z,2428.00
2023-05-20T06:27:45.264Z,2464.00
2023-05-20T06:28:45.278Z,2428.00
2023-05-20T06:29:45.250Z,2192.00
2023-05-20T06:30:45.413Z,2368.00
2023-05-20T06:31:45.237Z,2400.00
2023-05-20T06:32:45.229Z,2508.00
2023-05-20T06:33:45.254Z,2728.00
2023-05-20T06:34:45.198Z,2928.00
2023-05-20T06:35:45.203Z,3016.00
2023-05-20T06:36:45.182Z,2900.00
2023-05-20T06:37:45.177Z,2772.00
2023-05-20T06:38:45.165Z,2840.00
2023-05-20T06:39:45.161Z,3000.00
2023-05-20T06:40:45.217Z,3092.00
2023-05-20T06:41:45.160Z,3220.00
2023-05-20T06:42:45.113Z,3400.00
2023-05-20T06:43:45.111Z,3452.00
2023-05-20T06:44:45.459Z,3400.00
2023-05-20T06:45:45.056Z,3524.00
2023-05-20T06:46:45.187Z,3572.00
2023-05-20T06:47:45.103Z,3868.00
2023-05-20T06:48:45.062Z,3732.00
2023-05-20T06:49:47.531Z,3576.00
2023-05-20T06:50:45.037Z,3316.00
2023-05-20T06:51:45.014Z,2932.00
2023-05-20T06:52:46.060Z,2692.00
2023-05-20T06:53:45.045Z,2456.00
2023-05-20T06:54:45.007Z,2340.00
2023-05-20T06:55:44.968Z,2332.00
2023-05-20T06:56:45.004Z,2484.00
2023-05-20T06:57:44.951Z,2304.00
2023-05-20T06:58:45.021Z,2612.00
2023-05-20T06:59:44.915Z,3796.00
2023-05-20T07:00:44.937Z,3808.00
2023-05-20T07:01:44.921Z,3688.00
2023-05-20T07:02:44.937Z,3156.00
2023-05-20T07:03:44.958Z,2688.00
2023-05-20T07:04:44.999Z,2640.00
2023-05-20T07:05:44.856Z,2732.00
2023-05-20T07:06:44.869Z,2540.00
2023-05-20T07:07:44.930Z,2376.00
2023-05-20T07:08:44.880Z,2852.00
2023-05-20T07:09:44.807Z,4188.00
2023-05-20T07:10:44.802Z,4872.00
2023-05-20T07:11:44.845Z,5008.00
2023-05-20T07:12:44.787Z,4976.00
2023-05-20T07:13:44.764Z,4424.00
2023-05-20T07:14:44.832Z,4392.00
2023-05-20T07:15:44.772Z,4512.00
2023-05-20T07:16:45.281Z,4508.00
2023-05-20T07:17:44.761Z,4120.00
2023-05-20T07:18:45.444Z,3600.00
2023-05-20T07:19:45.535Z,3096.00
2023-05-20T07:20:44.673Z,3400.00
2023-05-20T07:21:44.715Z,3604.00
2023-05-20T07:22:44.671Z,3872.00
2023-05-20T07:23:44.644Z,3764.00
2023-05-20T07:24:44.637Z,3184.00
2023-05-20T07:25:44.682Z,2888.00
2023-05-20T07:26:44.645Z,2992.00
2023-05-20T07:27:44.628Z,3344.00
2023-05-20T07:28:44.584Z,4724.00
2023-05-20T07:29:44.561Z,5044.00
2023-05-20T07:30:44.599Z,3684.00
2023-05-20T07:31:44.651Z,3868.00
2023-05-20T07:32:44.634Z,4656.00
2023-05-20T07:33:44.549Z,5860.00
2023-05-20T07:34:44.543Z,5240.00
2023-05-20T07:35:44.525Z,4728.00
2023-05-20T07:36:44.514Z,3516.00
2023-05-20T07:37:44.522Z,3452.00
2023-05-20T07:38:56.535Z,4084.00
2023-05-20T07:39:44.574Z,4732.00
2023-05-20T07:40:44.493Z,4852.00
2023-05-20T07:41:44.473Z,4916.00
2023-05-20T07:42:44.420Z,5052.00
2023-05-20T07:43:44.426Z,6104.00
2023-05-20T07:44:44.447Z,7312.00
2023-05-20T07:45:44.456Z,8084.00
2023-05-20T07:46:44.480Z,6456.00
2023-05-20T07:47:44.439Z,5968.00
2023-05-20T07:48:44.396Z,5104.00
2023-05-20T07:49:44.381Z,4408.00
2023-05-20T07:50:44.355Z,4212.00
2023-05-20T07:51:44.332Z,4796.00
2023-05-20T07:52:56.047Z,5676.00
2023-05-20T07:53:44.328Z,5596.00
2023-05-20T07:54:44.335Z,5368.00
2023-05-20T07:55:44.312Z,4736.00
2023-05-20T07:56:44.327Z,4104.00
2023-05-20T07:57:44.856Z,3696.00
2023-05-20T07:58:44.262Z,3468.00
2023-05-20T07:59:44.507Z,3592.00
2023-05-20T08:00:44.234Z,3996.00
2023-05-20T08:01:44.235Z,3936.00
2023-05-20T08:02:44.509Z,4200.00
2023-05-20T08:03:44.305Z,4676.00
2023-05-20T08:04:44.250Z,5076.00
2023-05-20T08:05:44.179Z,5688.00
2023-05-20T08:06:44.187Z,6340.00
2023-05-20T08:07:44.314Z,6964.00
2023-05-20T08:08:44.148Z,7532.00
2023-05-20T08:09:44.147Z,7092.00
2023-05-20T08:10:44.122Z,6228.00
2023-05-20T08:11:45.824Z,6424.00
2023-05-20T08:12:45.099Z,6428.00
2023-05-20T08:13:44.161Z,6372.00
2023-05-20T08:14:44.081Z,6280.00
2023-05-20T08:15:44.125Z,6200.00
2023-05-20T08:16:44.093Z,6404.00
2023-05-20T08:17:44.099Z,5992.00
2023-05-20T08:18:44.129Z,5664.00
2023-05-20T08:19:44.024Z,5528.00
2023-05-20T08:20:44.074Z,5132.00
2023-05-20T08:21:43.984Z,4640.00
2023-05-20T08:22:44.026Z,4396.00
2023-05-20T08:23:44.049Z,4372.00
2023-05-20T08:24:44.012Z,4468.00
2023-05-20T08:25:43.939Z,4696.00
2023-05-20T08:26:43.949Z,4316.00
2023-05-20T08:27:43.986Z,4412.00
2023-05-20T08:28:43.963Z,4696.00
2023-05-20T08:29:43.900Z,4864.00
2023-05-20T08:30:43.931Z,4876.00
2023-05-20T08:31:43.960Z,4820.00
2023-05-20T08:32:43.941Z,4952.00
2023-05-20T08:33:43.855Z,5364.00
2023-05-20T08:34:43.849Z,5440.00
2023-05-20T08:35:43.933Z,5440.00
2023-05-20T08:36:43.853Z,5632.00
2023-05-20T08:37:43.815Z,5764.00
2023-05-20T08:38:43.835Z,5600.00
2023-05-20T08:39:43.882Z,5496.00
2023-05-20T08:40:43.978Z,5616.00
2023-05-20T08:41:43.799Z,5616.00
2023-05-20T08:42:43.782Z,5516.00
2023-05-20T08:43:43.871Z,5204.00
2023-05-20T08:44:43.801Z,5048.00
2023-05-20T08:45:43.740Z,5016.00
2023-05-20T08:46:43.767Z,4884.00
2023-05-20T08:47:43.772Z,4704.00
2023-05-20T08:48:43.700Z,4576.00
2023-05-20T08:49:43.698Z,4680.00
2023-05-20T08:50:43.691Z,4816.00
2023-05-20T08:51:43.817Z,4860.00
2023-05-20T08:52:43.728Z,4908.00
2023-05-20T08:53:43.641Z,4932.00
2023-05-20T08:54:43.754Z,5016.00
2023-05-20T08:55:43.752Z,5228.00
2023-05-20T08:56:43.605Z,5468.00
2023-05-20T08:57:43.664Z,5444.00
2023-05-20T08:58:43.582Z,5720.00
2023-05-20T08:59:43.583Z,5900.00
2023-05-20T09:00:43.602Z,5972.00
2023-05-20T09:01:43.624Z,6012.00
2023-05-20T09:02:43.626Z,6140.00
2023-05-20T09:03:43.583Z,6196.00
2023-05-20T09:04:43.603Z,6164.00
2023-05-20T09:05:44.413Z,6280.00
2023-05-20T09:06:43.514Z,6380.00
2023-05-20T09:07:43.481Z,6540.00
2023-05-20T09:08:43.565Z,6504.00
2023-05-20T09:09:43.479Z,6668.00
2023-05-20T09:10:43.451Z,6416.00
2023-05-20T09:11:43.439Z,6340.00
2023-05-20T09:12:43.423Z,6380.00
2023-05-20T09:13:43.468Z,6344.00
2023-05-20T09:14:43.409Z,6332.00
2023-05-20T09:15:43.400Z,6224.00
2023-05-20T09:16:43.455Z,6264.00
2023-05-20T09:17:43.405Z,6340.00
2023-05-20T09:18:43.502Z,6500.00
2023-05-20T09:19:43.407Z,6528.00
2023-05-20T09:20:43.355Z,6640.00
2023-05-20T09:21:43.359Z,6668.00
2023-05-20T09:22:43.305Z,6532.00
2023-05-20T09:23:45.434Z,6440.00
2023-05-20T09:24:43.295Z,6328.00
2023-05-20T09:25:43.304Z,6216.00
2023-05-20T09:26:43.348Z,6092.00
2023-05-20T09:27:43.345Z,5928.00
2023-05-20T09:28:43.251Z,5952.00
2023-05-20T09:29:43.251Z,6044.00
2023-05-20T09:30:45.267Z,6064.00
2023-05-20T09:31:43.297Z,6112.00
2023-05-20T09:32:43.247Z,6136.00
2023-05-20T09:33:43.447Z,6216.00
2023-05-20T09:34:43.301Z,6276.00
2023-05-20T09:35:43.196Z,6360.00
2023-05-20T09:36:43.185Z,6364.00
2023-05-20T09:37:43.222Z,6448.00
2023-05-20T09:38:43.238Z,6456.00
2023-05-20T09:39:43.136Z,6492.00
2023-05-20T09:40:43.127Z,6592.00
2023-05-20T09:41:43.131Z,6604.00
2023-05-20T09:42:43.112Z,6620.00
2023-05-20T09:43:43.080Z,6700.00
2023-05-20T09:44:43.132Z,6812.00
2023-05-20T09:45:43.278Z,6832.00
2023-05-20T09:46:43.084Z,6800.00
2023-05-20T09:47:43.060Z,6720.00
2023-05-20T09:48:43.050Z,6708.00
2023-05-20T09:49:43.017Z,6704.00
2023-05-20T09:50:43.024Z,6800.00
2023-05-20T09:51:43.011Z,6856.00
2023-05-20T09:52:43.010Z,6832.00
2023-05-20T09:53:42.984Z,6712.00
2023-05-20T09:54:42.981Z,6596.00
2023-05-20T09:55:42.956Z,6500.00
2023-05-20T09:56:42.954Z,6444.00
2023-05-20T09:57:42.952Z,6408.00
2023-05-20T09:58:42.997Z,6340.00
2023-05-20T09:59:42.914Z,6264.00
2023-05-20T10:00:42.944Z,6208.00
2023-05-20T10:01:43.055Z,6184.00
2023-05-20T10:02:42.977Z,6264.00
2023-05-20T10:03:44.448Z,6336.00
2023-05-20T10:04:42.902Z,6400.00
2023-05-20T10:05:42.876Z,6396.00
2023-05-20T10:06:42.858Z,6244.00
2023-05-20T10:07:42.890Z,6044.00
2023-05-20T10:08:42.810Z,5856.00
2023-05-20T10:09:42.796Z,5680.00
2023-05-20T10:10:42.830Z,5648.00
2023-05-20T10:11:42.780Z,5624.00
2023-05-20T10:12:42.766Z,5628.00
2023-05-20T10:13:42.793Z,5644.00
2023-05-20T10:14:42.786Z,5620.00
2023-05-20T10:15:42.781Z,5532.00
2023-05-20T10:16:42.774Z,5432.00
2023-05-20T10:17:42.755Z,5320.00
2023-05-20T10:18:42.775Z,5236.00
2023-05-20T10:19:42.851Z,5216.00
2023-05-20T10:20:42.695Z,5256.00
2023-05-20T10:21:42.739Z,5352.00
2023-05-20T10:22:42.690Z,5420.00
2023-05-20T10:23:42.652Z,5432.00
2023-05-20T10:24:42.646Z,5508.00
2023-05-20T10:25:42.642Z,5588.00
2023-05-20T10:26:42.619Z,6020.00
2023-05-20T10:27:42.601Z,6164.00
2023-05-20T10:28:42.615Z,6208.00
2023-05-20T10:29:42.623Z,6192.00
2023-05-20T10:30:44.440Z,6208.00
2023-05-20T10:31:42.595Z,6256.00
2023-05-20T10:32:42.572Z,6428.00
2023-05-20T10:33:42.618Z,6596.00
2023-05-20T10:34:42.559Z,6596.00
2023-05-20T10:35:42.509Z,6568.00
2023-05-20T10:36:42.833Z,6552.00
2023-05-20T10:37:42.563Z,6540.00
2023-05-20T10:38:42.489Z,6492.00
2023-05-20T10:39:42.557Z,6584.00
2023-05-20T10:40:42.450Z,6640.00
2023-05-20T10:41:42.485Z,6608.00
2023-05-20T10:42:42.440Z,6528.00
2023-05-20T10:43:42.489Z,6352.00
2023-05-20T10:44:42.406Z,6188.00
2023-05-20T10:45:42.397Z,6040.00
2023-05-20T10:47:42.592Z,5764.00
2023-05-20T10:48:42.482Z,5676.00
2023-05-20T10:49:42.377Z,5644.00
2023-05-20T10:50:42.354Z,5632.00
2023-05-20T10:51:42.327Z,5596.00
2023-05-20T10:52:42.319Z,5472.00
2023-05-20T10:53:42.356Z,5396.00
2023-05-20T10:54:42.313Z,5248.00
2023-05-20T10:55:42.285Z,5124.00
2023-05-20T10:56:42.288Z,4972.00
2023-05-20T10:57:42.330Z,4828.00
2023-05-20T10:58:42.239Z,4788.00
2023-05-20T10:59:42.308Z,4792.00
2023-05-20T11:00:42.265Z,4820.00
2023-05-20T11:01:42.455Z,4912.00
2023-05-20T11:02:42.402Z,5004.00
2023-05-20T11:03:42.305Z,5212.00
2023-05-20T11:04:42.187Z,5440.00
2023-05-20T11:05:42.175Z,5540.00
2023-05-20T11:06:42.167Z,5708.00
2023-05-20T11:07:42.162Z,5816.00
2023-05-20T11:08:42.172Z,5968.00
2023-05-20T11:09:42.142Z,6028.00
2023-05-20T11:10:42.126Z,6036.00
2023-05-20T11:11:42.117Z,6008.00
2023-05-20T11:12:42.147Z,6020.00
2023-05-20T11:13:42.200Z,5904.00
2023-05-20T11:14:42.072Z,5768.00
2023-05-20T11:15:42.085Z,5464.00
2023-05-20T11:16:42.118Z,5248.00
2023-05-20T11:17:42.082Z,5092.00
2023-05-20T11:18:42.150Z,4980.00
2023-05-20T11:19:42.219Z,4868.00
2023-05-20T11:20:42.052Z,4736.00
2023-05-20T11:21:42.005Z,4664.00
2023-05-20T11:22:41.981Z,4572.00
2023-05-20T11:23:41.997Z,4540.00
2023-05-20T11:24:42.006Z,4636.00
2023-05-20T11:25:41.993Z,4744.00
2023-05-20T11:26:41.935Z,5012.00
2023-05-20T11:27:41.943Z,5188.00
2023-05-20T11:28:41.930Z,5232.00
2023-05-20T11:29:41.935Z,5180.00
2023-05-20T11:30:41.909Z,5156.00
2023-05-20T11:31:41.970Z,5220.00
2023-05-20T11:32:41.988Z,5280.00
2023-05-20T11:33:41.876Z,5168.00
2023-05-20T11:34:41.874Z,5280.00
2023-05-20T11:35:41.837Z,5260.00
2023-05-20T11:36:41.856Z,5316.00
2023-05-20T11:37:41.879Z,5452.00
2023-05-20T11:38:41.801Z,5580.00
2023-05-20T11:39:41.850Z,5520.00
2023-05-20T11:40:49.583Z,5356.00
2023-05-20T11:41:41.779Z,5192.00
2023-05-20T11:42:41.853Z,5048.00
2023-05-20T11:43:41.768Z,4980.00
2023-05-20T11:44:41.806Z,4796.00
2023-05-20T11:45:41.869Z,4632.00
2023-05-20T11:46:41.897Z,4592.00
2023-05-20T11:47:41.752Z,4644.00
2023-05-20T11:48:41.712Z,4604.00
2023-05-20T11:49:41.709Z,4540.00
2023-05-20T11:50:41.702Z,4512.00
2023-05-20T11:51:41.675Z,4516.00
2023-05-20T11:52:41.672Z,4528.00
2023-05-20T11:53:41.655Z,4504.00
2023-05-20T11:54:41.628Z,4472.00
2023-05-20T11:55:41.650Z,4368.00
2023-05-20T11:56:41.619Z,4284.00
2023-05-20T11:57:41.622Z,4088.00
2023-05-20T11:58:41.601Z,4036.00
2023-05-20T11:59:41.617Z,3976.00
2023-05-20T12:00:51.240Z,3880.00
2023-05-20T12:01:41.579Z,3752.00
2023-05-20T12:02:41.642Z,3620.00
2023-05-20T12:03:42.648Z,3448.00
2023-05-20T12:04:41.562Z,3428.00
2023-05-20T12:05:41.516Z,3420.00
2023-05-20T12:06:41.508Z,3664.00
2023-05-20T12:07:41.561Z,4044.00
2023-05-20T12:08:41.548Z,4148.00
2023-05-20T12:09:41.471Z,4256.00
2023-05-20T12:10:41.457Z,4416.00
2023-05-20T12:11:42.080Z,4532.00
2023-05-20T12:12:41.493Z,4588.00
2023-05-20T12:13:41.428Z,4652.00
2023-05-20T12:14:41.447Z,4588.00
2023-05-20T12:15:41.492Z,4652.00
2023-05-20T12:16:41.469Z,4656.00
2023-05-20T12:17:41.545Z,4600.00
2023-05-20T12:18:41.407Z,4420.00
2023-05-20T12:19:42.187Z,4404.00
2023-05-20T12:20:41.376Z,4324.00
2023-05-20T12:21:41.363Z,4196.00
2023-05-20T12:22:41.384Z,4272.00
2023-05-20T12:23:41.321Z,4320.00
2023-05-20T12:24:41.331Z,4420.00
2023-05-20T12:25:41.324Z,4520.00
2023-05-20T12:26:41.309Z,4420.00
2023-05-20T12:27:41.275Z,4572.00
2023-05-20T12:28:41.321Z,4640.00
2023-05-20T12:29:41.275Z,5312.00
2023-05-20T12:30:41.251Z,5320.00
2023-05-20T12:31:41.286Z,5016.00
2023-05-20T12:32:41.297Z,5424.00
2023-05-20T12:33:41.268Z,5468.00
2023-05-20T12:34:41.256Z,5340.00
2023-05-20T12:35:42.286Z,5152.00
2023-05-20T12:36:41.168Z,5596.00
2023-05-20T12:37:41.152Z,5760.00
2023-05-20T12:38:41.148Z,5644.00
2023-05-20T12:39:41.149Z,5540.00
2023-05-20T12:40:41.163Z,5520.00